ANACAPA ISLAND CA US current weather conditions

sailwx.info

Wind from 298 at 3 knots gusting 8

Air temperature 19.4° C
Dewpoint 15.7° C

Last reported at 2014-Oct-31 19:23 UTC.
Time now 2014-Nov-01 06:14 UTC

Location: N 34°01' W 119°22'.
View on Google Maps.

See reports from other nearby stations

  
Tides and Currents Weather Stations Pressure Air Temp Water Temp Dewpoint Dewpoint Depression Visibility Wind Speed Wind Dir Waves Ship Positions
date/time (UTC)wind fromknots sea level pressurealtimeterstation pressurevisibilityair tempwater tempwave heightnotes
2014-Oct-31 19:23 298 3 gusting 8 19.4
2014-Oct-31 18:23 059 4 gusting 7 18.9
2014-Oct-31 17:23 074 4 gusting 6 18.3
2014-Oct-31 16:23 074 5 gusting 7 18.3
2014-Oct-31 15:23 087 0 gusting 4 18.3
2014-Oct-31 14:23 259 2 gusting 7 17.8
2014-Oct-31 13:23 277 4 gusting 9 17.8
2014-Oct-31 12:23 253 4 gusting 8 17.8
2014-Oct-31 11:23 272 2 gusting 6 17.8
2014-Oct-31 10:23 253 2 gusting 6 17.8
2014-Oct-31 09:23 263 2 gusting 5 17.8
2014-Oct-31 08:23 255 3 gusting 6 17.8
2014-Oct-31 07:23 255 1 gusting 3 17.8
2014-Oct-31 06:23 275 0 gusting 3 17.2
2014-Oct-31 05:23 328 0 gusting 5 17.8
2014-Oct-31 04:23 318 1 gusting 2 17.8
2014-Oct-31 03:23 317 2 gusting 6 18.3
2014-Oct-31 02:23 249 6 gusting 11 18.3
2014-Oct-31 01:23 312 3 gusting 11 18.3
2014-Oct-31 00:23 328 7 gusting 13 18.9
2014-Oct-30 23:23 302 6 gusting 12 20.0
2014-Oct-30 22:23 295 6 gusting 13 21.1
2014-Oct-30 21:23 266 6 gusting 19 19.4
2014-Oct-30 20:23 260 11 gusting 19 18.9
2014-Oct-30 19:23 257 7 gusting 13 20.6
2014-Oct-30 18:23 291 3 gusting 7 21.7
2014-Oct-30 17:23 344 1 gusting 6 20.0
2014-Oct-30 16:23 079 2 gusting 5 19.4
2014-Oct-30 15:23 067 3 gusting 4 17.8
2014-Oct-30 14:23 063 1 gusting 5 17.8
2014-Oct-30 13:23 074 4 gusting 8 17.2
2014-Oct-30 12:23 050 4 gusting 6 17.8
2014-Oct-30 11:23 069 1 gusting 2 17.8
2014-Oct-30 10:23 338 0 gusting 5 17.8
2014-Oct-30 09:23 229 3 gusting 6 18.3
2014-Oct-30 08:23 067 2 gusting 6 18.3
2014-Oct-30 07:23 238 4 gusting 7 18.3
2014-Oct-30 06:23 237 5 gusting 9 18.3